Time;durP1;ratioP1;P1;durP2;ratioP2;P2;SDS_P1;SDS_P2;PMS_P1;PMS_P2;Temp;Humidity;BMP_temperature;BMP_pressure;BME280_temperature;BME280_humidity;BME280_pressure;Samples;Min_cycle;Max_cycle;Signal;HPM_P1;HPM_P2
2023/05/06 00:01:19;;;;;;;3.80;2.50;;;;;;;20.53;31.71;100756.10;108080;1254;74982;-64
2023/05/06 00:03:46;;;;;;;4.30;2.80;;;;;;;20.47;31.92;100754.37;108109;1253;62882;-65
2023/05/06 00:06:13;;;;;;;3.30;2.60;;;;;;;20.22;32.18;100753.52;108147;1252;62720;-65
2023/05/06 00:08:40;;;;;;;5.40;2.80;;;;;;;20.31;32.16;100750.28;108129;1253;73102;-66
2023/05/06 00:11:07;;;;;;;3.60;2.70;;;;;;;20.73;31.76;100749.58;108119;1252;71479;-67
2023/05/06 00:13:34;;;;;;;3.00;2.50;;;;;;;21.01;31.32;100751.86;108138;1257;73274;-64
2023/05/06 00:16:01;;;;;;;5.80;3.00;;;;;;;20.96;31.47;100747.22;108127;1253;63291;-64
2023/05/06 00:18:28;;;;;;;5.40;2.80;;;;;;;21.07;31.34;100751.27;108147;1254;62109;-64
2023/05/06 00:20:55;;;;;;;6.50;2.90;;;;;;;20.98;31.28;100747.41;108130;1253;72896;-65
2023/05/06 00:23:21;;;;;;;4.20;3.20;;;;;;;20.65;31.81;100750.09;108149;1254;70846;-63
2023/05/06 00:25:48;;;;;;;6.00;3.40;;;;;;;20.92;31.55;100757.69;108114;1257;72283;-66
2023/05/06 00:28:15;;;;;;;4.20;2.60;;;;;;;20.97;31.41;100760.32;108147;1254;62148;-66
2023/05/06 00:30:42;;;;;;;5.70;2.90;;;;;;;20.63;31.67;100765.16;108122;1252;62635;-66
2023/05/06 00:33:09;;;;;;;2.90;2.20;;;;;;;20.70;31.63;100765.81;108107;1254;73212;-66
2023/05/06 00:35:36;;;;;;;3.60;2.60;;;;;;;20.61;31.79;100770.33;108133;1254;71850;-66
2023/05/06 00:38:07;;;;;;;4.40;2.70;;;;;;;20.66;31.69;100773.21;108132;1251;74713;-66
2023/05/06 00:40:35;;;;;;;5.40;2.70;;;;;;;20.71;31.73;100779.27;108257;1252;62020;-66
2023/05/06 00:43:02;;;;;;;3.30;2.50;;;;;;;20.55;31.82;100781.83;108111;1251;60014;-66
2023/05/06 00:45:29;;;;;;;5.60;2.60;;;;;;;20.60;31.84;100787.33;108271;1251;75314;-65
2023/05/06 00:47:56;;;;;;;5.90;2.90;;;;;;;20.80;31.60;100783.30;108200;1251;69864;-66
2023/05/06 00:50:24;;;;;;;6.40;2.90;;;;;;;20.94;31.49;100780.02;108120;1257;73856;-65
2023/05/06 00:52:53;;;;;;;3.40;2.60;;;;;;;21.09;31.37;100783.27;108253;1251;62789;-65
2023/05/06 00:55:20;;;;;;;5.60;3.00;;;;;;;21.11;31.42;100785.61;108379;1251;60433;-67
2023/05/06 00:57:50;;;;;;;6.20;2.40;;;;;;;21.15;31.27;100784.10;108184;1251;73427;-66
2023/05/06 01:00:18;;;;;;;2.80;2.30;;;;;;;21.15;31.28;100788.91;108281;1251;72101;-64
2023/05/06 01:02:46;;;;;;;5.60;3.20;;;;;;;21.28;31.18;100796.23;108368;1255;73963;-66
2023/05/06 01:05:15;;;;;;;5.10;2.80;;;;;;;21.34;31.07;100794.30;108278;1251;63317;-66
2023/05/06 01:08:03;;;;;;;3.80;2.30;;;;;;;21.23;31.06;100798.00;108223;1251;60889;-66
2023/05/06 01:10:37;;;;;;;7.50;2.70;;;;;;;21.36;30.98;100793.86;108029;1251;75390;-67
2023/05/06 01:13:23;;;;;;;4.60;2.40;;;;;;;21.28;30.95;100790.83;108079;1251;70946;-66
2023/05/06 01:15:53;;;;;;;4.80;2.40;;;;;;;21.27;31.09;100788.79;108030;1251;73652;-66
2023/05/06 01:18:21;;;;;;;3.40;2.50;;;;;;;21.25;31.00;100786.92;108193;1251;63262;-65
2023/05/06 01:20:49;;;;;;;3.40;2.50;;;;;;;21.19;31.06;100789.52;108268;1251;61204;-64
2023/05/06 01:23:17;;;;;;;3.90;2.50;;;;;;;20.98;31.46;100790.45;108293;1251;75106;-64
2023/05/06 01:25:43;;;;;;;4.50;2.70;;;;;;;21.22;31.28;100789.86;108201;1251;70185;-63
2023/05/06 01:28:11;;;;;;;3.80;2.30;;;;;;;21.30;31.13;100792.83;108195;1251;74499;-67
2023/05/06 01:30:50;;;;;;;3.80;2.50;;;;;;;21.17;31.17;100787.36;108211;1251;60759;-65
2023/05/06 01:33:38;;;;;;;3.20;2.40;;;;;;;21.40;30.96;100786.59;108211;1251;60914;-67
2023/05/06 01:36:16;;;;;;;4.70;2.60;;;;;;;21.64;30.56;100792.54;108224;1251;73379;-65
2023/05/06 01:39:12;;;;;;;3.60;2.50;;;;;;;21.71;30.52;100800.30;108168;1251;71719;-64
2023/05/06 01:41:41;;;;;;;4.50;2.40;;;;;;;21.73;30.35;100804.25;108175;1251;74840;-67
2023/05/06 01:44:09;;;;;;;3.60;2.50;;;;;;;21.58;30.47;100807.27;108185;1253;62127;-66
2023/05/06 01:46:36;;;;;;;5.20;2.70;;;;;;;21.63;30.45;100808.36;108068;1252;60540;-66
2023/05/06 01:49:05;;;;;;;3.60;2.40;;;;;;;21.37;30.64;100812.16;108220;1253;74999;-67
2023/05/06 01:51:33;;;;;;;3.50;2.30;;;;;;;21.26;30.72;100822.24;108225;1254;72491;-64
2023/05/06 01:54:00;;;;;;;4.30;2.20;;;;;;;21.16;30.81;100823.48;108171;1257;72623;-67
2023/05/06 01:56:30;;;;;;;3.50;2.20;;;;;;;21.08;30.97;100823.65;108157;1253;63188;-66
2023/05/06 01:58:58;;;;;;;2.40;2.00;;;;;;;21.32;30.69;100822.92;108084;1254;62173;-66
2023/05/06 02:01:25;;;;;;;4.10;2.60;;;;;;;21.22;30.58;100825.54;108203;1254;73804;-64
2023/05/06 02:03:52;;;;;;;5.60;3.20;;;;;;;21.01;31.05;100828.08;108121;1254;70623;-64
2023/05/06 02:06:20;;;;;;;3.80;2.50;;;;;;;20.90;31.04;100831.55;108099;1259;74864;-65
2023/05/06 02:08:47;;;;;;;5.80;2.70;;;;;;;20.95;30.90;100835.14;108110;1253;61357;-63
2023/05/06 02:11:18;;;;;;;;;;;;;;;20.83;31.05;100834.33;108113;1253;61342;-66
2023/05/06 02:13:46;;;;;;;3.90;2.30;;;;;;;20.74;31.16;100831.54;108011;1254;73079;-65
2023/05/06 02:16:13;;;;;;;4.10;2.00;;;;;;;20.72;31.22;100825.41;108072;1254;71065;-64
2023/05/06 02:18:41;;;;;;;5.30;2.20;;;;;;;20.80;30.99;100826.14;108105;1254;73454;-66
2023/05/06 02:21:08;;;;;;;4.00;2.30;;;;;;;20.99;30.72;100837.71;108187;1254;63606;-65
2023/05/06 02:23:35;;;;;;;4.90;2.50;;;;;;;20.89;30.86;100847.48;108106;1254;59525;-66
2023/05/06 02:26:03;;;;;;;2.70;2.20;;;;;;;20.91;30.92;100853.63;108067;1254;73957;-63
2023/05/06 02:28:32;;;;;;;3.10;2.20;;;;;;;20.82;30.87;100850.83;108106;1254;72392;-64
2023/05/06 02:30:58;;;;;;;4.20;2.40;;;;;;;20.87;30.89;100846.53;108118;1254;74781;-62
2023/05/06 02:33:25;;;;;;;2.50;2.10;;;;;;;20.87;30.80;100853.18;108055;1259;60452;-63
2023/05/06 02:35:52;;;;;;;7.70;2.90;;;;;;;20.88;30.78;100851.33;108065;1253;62519;-68
2023/05/06 02:38:19;;;;;;;2.50;1.90;;;;;;;20.79;30.72;100854.55;108081;1253;74157;-63
2023/05/06 02:40:46;;;;;;;2.90;2.00;;;;;;;20.80;30.52;100857.90;108137;1254;70826;-64
2023/05/06 02:43:13;;;;;;;2.60;2.00;;;;;;;20.80;30.52;100864.33;108105;1256;71368;-64
2023/05/06 02:45:40;;;;;;;4.10;2.60;;;;;;;20.86;30.32;100859.48;108118;1253;59899;-67
2023/05/06 02:48:07;;;;;;;3.20;2.30;;;;;;;20.97;30.20;100859.39;108094;1252;60029;-65
2023/05/06 02:50:35;;;;;;;3.50;2.40;;;;;;;20.76;30.34;100855.31;108100;1253;72387;-64
2023/05/06 02:53:02;;;;;;;5.50;2.90;;;;;;;20.78;30.01;100855.94;108234;1253;72371;-66
2023/05/06 02:55:29;;;;;;;5.50;2.70;;;;;;;20.49;30.25;100852.80;108177;1253;72289;-66
2023/05/06 02:57:56;;;;;;;4.20;2.90;;;;;;;20.55;30.10;100855.30;108003;1253;61084;-65
2023/05/06 03:00:22;;;;;;;5.20;2.50;;;;;;;20.57;30.12;100857.69;108049;1251;61235;-66
2023/05/06 03:02:49;;;;;;;5.40;2.50;;;;;;;20.79;29.77;100855.68;108133;1251;75749;-66
2023/05/06 03:05:16;;;;;;;3.20;2.50;;;;;;;20.59;29.84;100858.43;108185;1251;69146;-65
2023/05/06 03:07:43;;;;;;;4.50;2.90;;;;;;;20.31;30.11;100857.39;108094;1251;74879;-65
2023/05/06 03:10:10;;;;;;;5.60;2.10;;;;;;;20.29;30.23;100863.25;108119;1254;62971;-66
2023/05/06 03:12:37;;;;;;;5.80;2.50;;;;;;;20.44;30.09;100879.73;108063;1251;60785;-66
2023/05/06 03:15:05;;;;;;;5.00;2.40;;;;;;;20.48;30.16;100886.64;108079;1251;73625;-67
2023/05/06 03:17:32;;;;;;;3.10;2.30;;;;;;;20.64;29.93;100886.43;108066;1251;71233;-65
2023/05/06 03:20:00;;;;;;;7.00;2.30;;;;;;;20.96;29.55;100892.86;108200;1251;73505;-65
2023/05/06 03:22:28;;;;;;;3.60;2.40;;;;;;;21.09;29.40;100896.27;108103;1251;63332;-66
2023/05/06 03:24:55;;;;;;;5.00;2.60;;;;;;;21.14;29.21;100896.25;108261;1251;62257;-66
2023/05/06 03:27:22;;;;;;;3.30;2.20;;;;;;;21.27;29.19;100897.54;108179;1251;74219;-67
2023/05/06 03:29:51;;;;;;;2.90;2.40;;;;;;;21.75;28.70;100899.54;108085;1251;70718;-66
2023/05/06 03:32:18;;;;;;;7.40;2.50;;;;;;;22.21;28.09;100896.55;108255;1256;74711;-67
2023/05/06 03:34:45;;;;;;;3.50;2.30;;;;;;;22.23;27.96;100903.42;108204;1251;63168;-65
2023/05/06 03:37:15;;;;;;;5.50;2.60;;;;;;;22.67;27.42;100912.27;108237;1251;60176;-64
2023/05/06 03:39:46;;;;;;;3.10;2.00;;;;;;;22.44;27.78;100918.51;108287;1251;74008;-66
2023/05/06 03:42:16;;;;;;;7.30;2.20;;;;;;;22.70;27.22;100911.53;108219;1251;72398;-67
2023/05/06 03:44:43;;;;;;;4.40;2.40;;;;;;;22.93;26.80;100909.45;108036;1253;73749;-66
2023/05/06 03:47:10;;;;;;;5.50;2.40;;;;;;;23.18;26.79;100912.23;108057;1252;61265;-66
2023/05/06 03:49:37;;;;;;;3.70;2.10;;;;;;;23.59;26.12;100920.27;108200;1254;61427;-67
2023/05/06 03:52:04;;;;;;;5.10;2.50;;;;;;;23.98;25.86;100922.40;108139;1256;75473;-66
2023/05/06 03:54:31;;;;;;;6.00;2.20;;;;;;;24.12;25.40;100922.02;108071;1254;71206;-65
2023/05/06 03:56:58;;;;;;;5.70;2.20;;;;;;;23.98;25.58;100926.33;108064;1254;74918;-66
2023/05/06 03:59:25;;;;;;;4.80;2.10;;;;;;;24.34;25.36;100930.02;108048;1254;62097;-66
2023/05/06 04:01:53;;;;;;;4.10;1.90;;;;;;;24.82;24.70;100931.48;108001;1253;61712;-67
2023/05/06 04:04:20;;;;;;;4.40;2.00;;;;;;;25.36;24.25;100929.88;108104;1253;75908;-66
2023/05/06 04:06:46;;;;;;;4.10;2.10;;;;;;;25.51;23.64;100920.88;108067;1253;72380;-65
2023/05/06 04:09:13;;;;;;;3.20;2.00;;;;;;;25.84;23.31;100911.33;108098;1253;73916;-66
2023/05/06 04:11:41;;;;;;;4.30;1.70;;;;;;;25.67;23.05;100916.59;108079;1252;62439;-66
2023/05/06 04:14:09;;;;;;;6.30;1.80;;;;;;;25.53;23.14;100925.75;108099;1254;60928;-67
2023/05/06 04:16:36;;;;;;;3.40;1.90;;;;;;;25.56;22.97;100929.48;108028;1254;76151;-67
2023/05/06 04:19:03;;;;;;;5.00;1.80;;;;;;;25.64;23.14;100928.55;108180;1253;71792;-64
2023/05/06 04:21:32;;;;;;;3.30;1.90;;;;;;;25.86;23.02;100925.91;108046;1258;73490;-69
2023/05/06 04:24:02;;;;;;;5.10;1.80;;;;;;;26.39;22.54;100920.64;108026;1254;60410;-68
2023/05/06 04:26:33;;;;;;;;;;;;;;;26.56;22.06;100921.99;108165;1253;61044;-67
2023/05/06 04:29:00;;;;;;;3.00;2.10;;;;;;;26.90;21.85;100921.71;108008;1257;75976;-66
2023/05/06 04:31:28;;;;;;;6.60;2.00;;;;;;;27.39;21.53;100922.52;108089;1253;73282;-66
2023/05/06 04:33:57;;;;;;;5.40;1.80;;;;;;;28.09;20.79;100921.86;108016;1254;73611;-67
2023/05/06 04:36:23;;;;;;;4.80;1.90;;;;;;;28.24;20.63;100925.64;108027;1259;61975;-66
2023/05/06 04:39:20;;;;;;;8.70;3.20;;;;;;;28.27;20.11;100921.38;107923;1257;62406;-66
2023/05/06 04:41:48;;;;;;;3.50;2.00;;;;;;;28.26;20.16;100931.20;108091;1253;74042;-67
2023/05/06 04:44:19;;;;;;;2.10;1.60;;;;;;;28.28;19.77;100929.77;108080;1253;71898;-67
2023/05/06 04:46:47;;;;;;;3.50;1.90;;;;;;;28.09;19.95;100929.83;108013;1256;74685;-66
2023/05/06 04:49:14;;;;;;;3.90;1.40;;;;;;;28.14;20.29;100932.95;108109;1254;62743;-69
2023/05/06 04:51:41;;;;;;;4.90;1.60;;;;;;;28.74;19.65;100943.48;108088;1254;60411;-68
2023/05/06 04:54:09;;;;;;;5.40;1.80;;;;;;;28.93;18.94;100944.23;108036;1253;76157;-66
2023/05/06 04:56:36;;;;;;;4.50;1.80;;;;;;;28.99;18.78;100942.39;108098;1253;73070;-68
2023/05/06 04:59:03;;;;;;;8.80;2.00;;;;;;;28.66;18.65;100944.64;108147;1254;74992;-66
2023/05/06 05:01:30;;;;;;;5.30;1.80;;;;;;;28.51;18.66;100943.92;108106;1253;60456;-68
2023/05/06 05:03:57;;;;;;;3.50;1.80;;;;;;;28.38;18.91;100941.13;108157;1253;62834;-66
2023/05/06 05:06:24;;;;;;;5.40;1.90;;;;;;;28.64;18.84;100939.36;108178;1254;75452;-67
2023/05/06 05:08:51;;;;;;;3.20;1.90;;;;;;;29.32;18.44;100942.42;108230;1253;70203;-68
2023/05/06 05:11:21;;;;;;;5.90;1.80;;;;;;;29.83;17.71;100940.34;108030;1254;75115;-67
2023/05/06 05:13:48;;;;;;;3.80;1.70;;;;;;;29.96;17.59;100940.97;108057;1254;60263;-68
2023/05/06 05:16:15;;;;;;;1.60;1.40;;;;;;;29.99;17.31;100941.16;108024;1252;61857;-67
2023/05/06 05:18:43;;;;;;;4.10;1.50;;;;;;;29.82;16.86;100939.36;108172;1253;74937;-68
2023/05/06 05:21:17;;;;;;;6.40;1.50;;;;;;;30.01;16.79;100943.30;108141;1253;71186;-70
2023/05/06 05:23:44;;;;;;;3.90;1.80;;;;;;;30.09;15.99;100942.45;108077;1253;74715;-68
2023/05/06 05:26:10;;;;;;;3.00;1.80;;;;;;;29.96;16.44;100942.97;108134;1254;62211;-68
2023/05/06 05:28:38;;;;;;;3.40;1.90;;;;;;;29.66;16.05;100948.52;108166;1252;61922;-67
2023/05/06 05:31:05;;;;;;;3.50;1.90;;;;;;;29.23;15.86;100949.71;108126;1254;72988;-67
2023/05/06 05:33:34;;;;;;;4.50;1.50;;;;;;;29.29;16.53;100949.13;108058;1257;70658;-67
2023/05/06 05:36:03;;;;;;;3.60;1.60;;;;;;;29.60;16.55;100944.20;108116;1253;74715;-66
2023/05/06 05:38:30;;;;;;;3.80;1.70;;;;;;;30.17;15.46;100945.09;107921;1253;60826;-67
2023/05/06 05:40:57;;;;;;;4.60;1.80;;;;;;;30.06;14.82;100943.88;108209;1253;61828;-66
2023/05/06 05:43:25;;;;;;;8.60;1.90;;;;;;;29.78;14.50;100943.56;108149;1253;76351;-65
2023/05/06 05:45:53;;;;;;;5.60;1.80;;;;;;;29.54;14.67;100947.39;108173;1254;72822;-66
2023/05/06 05:48:20;;;;;;;20.80;2.30;;;;;;;29.60;14.33;100948.61;108156;1251;73723;-66
2023/05/06 05:50:47;;;;;;;6.50;1.40;;;;;;;29.73;14.06;100951.95;108170;1251;60548;-65
2023/05/06 05:53:15;;;;;;;5.50;1.80;;;;;;;29.69;13.87;100954.27;108275;1251;62477;-67
2023/05/06 05:55:42;;;;;;;4.40;1.50;;;;;;;29.34;13.80;100957.05;108084;1253;76250;-66
2023/05/06 05:58:10;;;;;;;7.30;1.80;;;;;;;29.11;14.06;100953.61;108074;1253;72271;-66
2023/05/06 06:00:37;;;;;;;3.40;1.50;;;;;;;29.34;14.19;100954.91;108078;1257;74653;-67
2023/05/06 06:03:06;;;;;;;6.80;1.60;;;;;;;29.60;13.35;100955.30;108079;1253;60816;-67
2023/05/06 06:05:33;;;;;;;6.10;1.50;;;;;;;29.58;12.85;100952.80;108151;1253;60974;-67
2023/05/06 06:08:00;;;;;;;2.40;1.40;;;;;;;29.50;13.42;100953.91;108127;1253;74531;-67
2023/05/06 06:10:30;;;;;;;5.80;1.80;;;;;;;28.90;13.27;100956.35;108086;1258;72318;-68
2023/05/06 06:12:58;;;;;;;5.00;1.50;;;;;;;28.94;13.62;100956.08;108168;1253;71729;-68
2023/05/06 06:15:25;;;;;;;4.40;1.50;;;;;;;29.20;13.39;100960.98;108115;1253;60749;-68
2023/05/06 06:17:53;;;;;;;2.90;1.40;;;;;;;29.45;13.50;100966.80;108055;1253;62570;-65
2023/05/06 06:20:20;;;;;;;6.30;1.70;;;;;;;29.81;13.01;100959.39;108121;1253;72795;-67
2023/05/06 06:22:47;;;;;;;9.10;2.10;;;;;;;30.30;12.65;100962.88;108021;1253;72840;-67
2023/05/06 06:25:14;;;;;;;2.60;1.80;;;;;;;30.24;12.73;100962.81;108084;1253;73610;-66
2023/05/06 06:27:41;;;;;;;5.60;1.70;;;;;;;30.51;12.58;100963.89;108083;1252;62829;-67
2023/05/06 06:30:09;;;;;;;8.10;1.80;;;;;;;29.85;11.98;100971.03;108179;1253;62791;-68
2023/05/06 06:32:40;;;;;;;4.20;1.70;;;;;;;29.45;11.75;100972.02;108163;1253;76248;-69
2023/05/06 06:35:07;;;;;;;8.00;1.80;;;;;;;29.65;12.25;100977.00;108094;1253;72633;-69
2023/05/06 06:37:34;;;;;;;7.30;2.00;;;;;;;29.79;12.41;100972.50;108040;1253;74391;-67
2023/05/06 06:40:01;;;;;;;2.90;1.90;;;;;;;30.11;11.74;100972.83;108147;1253;61961;-67
2023/05/06 06:42:28;;;;;;;4.20;1.80;;;;;;;30.31;11.80;100969.50;108099;1253;61511;-69
2023/05/06 06:44:59;;;;;;;12.50;1.90;;;;;;;30.16;11.82;100971.25;108189;1253;76027;-68
2023/05/06 06:47:26;;;;;;;9.40;2.20;;;;;;;30.00;11.63;100973.54;108193;1253;70388;-68
2023/05/06 06:49:53;;;;;;;3.70;1.50;;;;;;;29.10;11.95;100978.63;108219;1253;73330;-69
2023/05/06 06:52:20;;;;;;;3.80;1.60;;;;;;;28.59;12.39;100977.48;108035;1253;61547;-66
2023/05/06 06:54:47;;;;;;;2.80;1.60;;;;;;;28.83;12.40;100983.19;108113;1253;61260;-68
2023/05/06 06:57:14;;;;;;;10.60;1.80;;;;;;;28.86;12.44;100979.14;108211;1251;75131;-67
2023/05/06 06:59:40;;;;;;;5.60;1.50;;;;;;;29.20;12.39;100977.50;108196;1251;72498;-67
2023/05/06 07:02:07;;;;;;;5.50;1.60;;;;;;;29.83;12.25;100980.00;108211;1254;73294;-68
2023/05/06 07:04:34;;;;;;;5.60;1.80;;;;;;;29.75;12.01;100978.10;108232;1251;62589;-67
2023/05/06 07:07:01;;;;;;;3.80;1.70;;;;;;;29.84;12.28;100978.15;108145;1251;62743;-68
2023/05/06 07:09:28;;;;;;;7.00;1.80;;;;;;;30.02;12.29;100981.33;108143;1251;75937;-68
2023/05/06 07:11:55;;;;;;;3.70;1.60;;;;;;;30.18;11.75;100981.77;108056;1251;71834;-67
2023/05/06 07:14:22;;;;;;;3.20;1.30;;;;;;;30.93;11.86;100972.31;108147;1253;73901;-68
2023/05/06 07:16:49;;;;;;;4.60;1.50;;;;;;;31.04;11.29;100977.28;108137;1251;61330;-68
2023/05/06 07:19:17;;;;;;;5.90;1.80;;;;;;;31.09;11.34;100970.05;108187;1252;62599;-68
2023/05/06 07:21:44;;;;;;;5.40;1.90;;;;;;;30.58;11.69;100968.97;108193;1251;75522;-68
2023/05/06 07:24:10;;;;;;;4.20;1.30;;;;;;;30.17;11.46;100976.04;108212;1251;72798;-68
2023/05/06 07:26:37;;;;;;;7.20;1.70;;;;;;;30.20;11.35;100979.77;108213;1251;73587;-69
2023/05/06 07:29:04;;;;;;;6.90;1.50;;;;;;;29.87;11.63;100980.34;108131;1256;60949;-69
2023/05/06 07:31:31;;;;;;;1.80;1.40;;;;;;;29.79;11.74;100976.10;108145;1252;62412;-69
2023/05/06 07:33:58;;;;;;;5.60;1.70;;;;;;;30.13;11.66;100984.22;108175;1251;74449;-70
2023/05/06 07:36:26;;;;;;;5.80;1.70;;;;;;;30.04;11.17;100988.64;108027;1251;71594;-68
2023/05/06 07:38:52;;;;;;;4.30;1.60;;;;;;;30.46;11.30;100984.58;108187;1253;74321;-68
2023/05/06 07:41:19;;;;;;;6.20;1.60;;;;;;;30.65;11.14;100992.33;108227;1251;60314;-69
2023/05/06 07:43:46;;;;;;;4.80;1.60;;;;;;;30.93;10.88;100990.55;108056;1251;61758;-68
2023/05/06 07:46:13;;;;;;;4.40;1.50;;;;;;;31.35;11.26;100987.31;108249;1251;75906;-68
2023/05/06 07:48:40;;;;;;;3.30;1.60;;;;;;;31.76;10.67;100982.60;108112;1251;71383;-68
2023/05/06 07:51:07;;;;;;;2.30;1.50;;;;;;;31.86;10.44;100983.26;108109;1251;75170;-69
2023/05/06 07:53:34;;;;;;;4.10;1.40;;;;;;;32.00;10.63;100981.86;108186;1253;62427;-69
2023/05/06 07:56:02;;;;;;;5.50;1.60;;;;;;;32.16;10.44;100986.02;108218;1256;61425;-69
2023/05/06 07:58:30;;;;;;;7.70;1.60;;;;;;;32.19;10.35;100988.18;108118;1251;75856;-67
2023/05/06 08:00:57;;;;;;;4.80;1.50;;;;;;;31.67;10.30;100986.67;108180;1251;70956;-71
2023/05/06 08:03:24;;;;;;;6.50;2.00;;;;;;;31.66;10.44;100984.02;108211;1251;73949;-69
2023/05/06 08:05:52;;;;;;;7.70;2.00;;;;;;;31.51;10.62;100982.48;108183;1251;62705;-68
2023/05/06 08:08:18;;;;;;;8.20;1.80;;;;;;;30.85;10.67;100986.52;108183;1251;60316;-69
2023/05/06 08:10:45;;;;;;;6.70;1.80;;;;;;;30.89;10.91;100986.84;108225;1251;76136;-69
2023/05/06 08:13:12;;;;;;;4.80;1.80;;;;;;;30.92;10.72;100990.65;108166;1253;68851;-69
2023/05/06 08:15:39;;;;;;;7.00;1.70;;;;;;;30.40;10.93;100999.48;108146;1251;74928;-67
2023/05/06 08:18:06;;;;;;;6.00;1.60;;;;;;;30.33;11.21;100998.15;108057;1252;61231;-66
2023/05/06 08:20:47;;;;;;;4.50;1.80;;;;;;;29.90;10.72;100992.81;108151;1251;60281;-68
2023/05/06 08:23:14;;;;;;;8.80;1.60;;;;;;;29.79;11.13;100997.06;108351;1251;76176;-70
2023/05/06 08:25:41;;;;;;;9.60;1.70;;;;;;;29.93;10.92;101000.69;108160;1251;70661;-68
2023/05/06 08:28:08;;;;;;;12.60;2.10;;;;;;;30.69;10.65;100991.81;108264;1251;75213;-68
2023/05/06 08:30:35;;;;;;;8.40;1.60;;;;;;;30.76;10.82;100996.91;108217;1252;62353;-69
2023/05/06 08:33:02;;;;;;;5.70;1.70;;;;;;;31.12;10.79;100990.59;108079;1251;60964;-68
2023/05/06 08:35:29;;;;;;;5.90;1.80;;;;;;;30.93;10.50;100991.60;108147;1251;75728;-69
2023/05/06 08:37:56;;;;;;;5.40;2.10;;;;;;;30.87;10.25;100994.95;108193;1253;69652;-67
2023/05/06 08:40:23;;;;;;;4.50;1.90;;;;;;;30.54;9.96;100994.91;108351;1254;74000;-68
2023/05/06 08:42:49;;;;;;;12.30;2.30;;;;;;;30.46;10.46;100995.77;108168;1251;61074;-67
2023/05/06 08:45:16;;;;;;;4.60;1.90;;;;;;;30.87;10.50;100989.39;108208;1251;62673;-67
2023/05/06 08:47:43;;;;;;;7.70;1.50;;;;;;;31.32;10.28;100996.84;108222;1251;74204;-67
2023/05/06 08:50:10;;;;;;;6.90;4.20;;;;;;;31.49;9.84;100991.36;108196;1251;72352;-67
2023/05/06 08:52:37;;;;;;;7.50;2.40;;;;;;;31.20;10.12;100988.14;108210;1253;72744;-69
2023/05/06 08:55:08;;;;;;;8.60;3.10;;;;;;;31.26;9.93;100995.99;108164;1251;60454;-69
2023/05/06 08:57:37;;;;;;;3.90;2.10;;;;;;;30.93;9.54;100998.09;107937;1252;62470;-67
2023/05/06 09:00:09;;;;;;;6.60;2.60;;;;;;;30.08;9.65;101004.73;108144;1253;73582;-68
2023/05/06 09:02:37;;;;;;;3.60;1.90;;;;;;;29.44;9.86;101010.66;108145;1252;71966;-66
2023/05/06 09:05:08;;;;;;;3.40;2.10;;;;;;;28.83;10.37;101004.53;108086;1253;71747;-67
2023/05/06 09:07:35;;;;;;;4.30;2.00;;;;;;;28.54;10.58;101009.17;108014;1254;59779;-68
2023/05/06 09:10:12;;;;;;;7.10;2.10;;;;;;;28.65;10.61;101006.54;108024;1252;62790;-67
2023/05/06 09:12:39;;;;;;;3.50;2.10;;;;;;;28.62;10.47;101009.80;108150;1252;73438;-67
2023/05/06 09:15:08;;;;;;;6.70;1.90;;;;;;;28.84;10.40;101011.14;108159;1253;70642;-68
2023/05/06 09:17:35;;;;;;;8.40;2.00;;;;;;;29.09;10.35;101006.83;108156;1253;72667;-69
2023/05/06 09:20:02;;;;;;;3.80;1.50;;;;;;;29.49;10.44;101009.02;108166;1253;61759;-68
2023/05/06 09:22:30;;;;;;;4.70;1.70;;;;;;;29.58;10.08;101016.10;108063;1253;60273;-70
2023/05/06 09:24:57;;;;;;;3.50;1.80;;;;;;;29.90;10.48;101019.08;108146;1253;72275;-67
2023/05/06 09:27:30;;;;;;;8.20;1.80;;;;;;;30.34;10.49;101011.19;108066;1253;71556;-67
2023/05/06 09:30:00;;;;;;;4.30;1.50;;;;;;;30.74;10.34;101007.09;108184;1252;74448;-67
2023/05/06 09:32:28;;;;;;;9.80;1.80;;;;;;;31.31;10.06;101001.43;108168;1252;61028;-66
2023/05/06 09:34:55;;;;;;;5.20;2.00;;;;;;;31.02;9.54;101004.91;108147;1253;62010;-65
2023/05/06 09:37:23;;;;;;;4.80;2.10;;;;;;;31.03;9.49;101000.24;108157;1253;75992;-68
2023/05/06 09:39:55;;;;;;;4.10;2.50;;;;;;;30.84;9.75;101000.42;108190;1253;71979;-67
2023/05/06 09:42:24;;;;;;;7.10;2.80;;;;;;;31.06;9.95;100993.27;108094;1257;72419;-67
2023/05/06 09:44:52;;;;;;;8.30;2.30;;;;;;;31.18;9.77;100989.91;108128;1257;61728;-68
2023/05/06 09:47:23;;;;;;;12.10;2.90;;;;;;;30.69;9.79;100995.63;108098;1252;62425;-68
2023/05/06 09:49:50;;;;;;;3.00;1.70;;;;;;;30.20;9.97;100996.17;108118;1253;72906;-69
2023/05/06 09:52:18;;;;;;;6.00;1.70;;;;;;;29.72;10.10;101002.15;108099;1253;72242;-68
2023/05/06 09:54:45;;;;;;;3.80;1.80;;;;;;;29.51;10.45;100999.46;108030;1253;74653;-68
2023/05/06 09:57:14;;;;;;;8.60;2.00;;;;;;;29.73;10.74;100992.33;108259;1253;60351;-68
2023/05/06 09:59:41;;;;;;;3.30;1.90;;;;;;;29.90;10.62;100996.88;108104;1252;60017;-68
2023/05/06 10:02:07;;;;;;;4.60;1.90;;;;;;;30.28;10.26;100990.82;108130;1252;75393;-71
2023/05/06 10:04:35;;;;;;;4.60;1.70;;;;;;;30.00;10.20;100991.98;108213;1251;70067;-68
2023/05/06 10:07:02;;;;;;;10.90;2.20;;;;;;;29.70;10.26;100984.67;108003;1251;74677;-68
2023/05/06 10:09:30;;;;;;;9.80;2.20;;;;;;;29.32;10.84;100989.63;108146;1252;62785;-67
2023/05/06 10:11:58;;;;;;;4.10;1.70;;;;;;;29.19;10.69;100989.89;108162;1252;61222;-68
2023/05/06 10:14:24;;;;;;;3.90;1.90;;;;;;;29.58;10.72;100998.84;108264;1253;74937;-68
2023/05/06 10:16:51;;;;;;;6.90;2.10;;;;;;;29.89;10.45;100992.19;108141;1258;71161;-67
2023/05/06 10:19:22;;;;;;;3.40;2.10;;;;;;;30.09;10.25;100989.23;108211;1253;74273;-68
2023/05/06 10:21:56;;;;;;;3.50;1.90;;;;;;;29.93;10.07;100982.00;108225;1253;61564;-70
2023/05/06 10:24:28;;;;;;;11.80;2.00;;;;;;;30.19;10.52;100977.98;108212;1252;60466;-70
2023/05/06 10:26:55;;;;;;;10.90;2.30;;;;;;;30.93;10.61;100972.98;108214;1251;74036;-68
2023/05/06 10:29:22;;;;;;;7.90;2.60;;;;;;;31.50;9.86;100983.86;108278;1251;72414;-68
2023/05/06 10:31:53;;;;;;;7.40;1.80;;;;;;;31.79;9.57;100984.40;108058;1251;73177;-69
2023/05/06 10:34:20;;;;;;;;;;;;;;;31.91;9.65;100982.48;108250;1251;62319;-68
2023/05/06 10:36:49;;;;;;;11.00;2.80;;;;;;;32.00;9.93;100983.39;108115;1251;62037;-68
2023/05/06 10:39:16;;;;;;;4.00;2.50;;;;;;;32.23;9.85;100983.05;108099;1253;75888;-69
2023/05/06 10:41:43;;;;;;;6.80;2.10;;;;;;;32.63;9.77;100990.56;108173;1252;72101;-68
2023/05/06 10:44:10;;;;;;;3.90;1.90;;;;;;;32.61;9.27;100999.27;108263;1252;74419;-69
2023/05/06 10:47:00;;;;;;;3.10;1.70;;;;;;;32.66;9.47;100996.75;108164;1253;61819;-68
2023/05/06 10:49:27;;;;;;;4.30;1.80;;;;;;;32.38;9.14;100996.71;108170;1253;62556;-69
2023/05/06 10:52:12;;;;;;;3.20;1.80;;;;;;;31.96;9.41;100998.44;108145;1254;73950;-69
2023/05/06 10:54:48;;;;;;;3.90;1.70;;;;;;;31.58;9.25;101000.79;108152;1251;72432;-69
2023/05/06 10:57:15;;;;;;;5.10;1.90;;;;;;;31.17;9.69;100992.74;108103;1253;75022;-68
2023/05/06 10:59:45;;;;;;;10.00;2.00;;;;;;;31.20;9.56;100995.15;108214;1252;63177;-67
2023/05/06 11:04:25;;;;;;;5.00;2.40;;;;;;;29.31;10.83;100986.63;104802;1291;600309;-68
2023/05/06 11:06:52;;;;;;;6.70;2.40;;;;;;;31.34;10.11;100980.21;107224;1265;60230;-68
2023/05/06 11:09:24;;;;;;;13.20;2.70;;;;;;;31.55;9.61;100983.45;107166;1266;62748;-68
2023/05/06 11:12:00;;;;;;;4.20;1.60;;;;;;;31.26;9.31;100983.38;107228;1265;74359;-68
2023/05/06 11:14:34;;;;;;;9.40;3.10;;;;;;;30.92;9.19;100981.16;107288;1266;72079;-68
2023/05/06 11:17:28;;;;;;;4.50;1.80;;;;;;;30.63;9.69;100987.77;107802;1257;225935;-69
2023/05/06 11:20:17;;;;;;;5.20;1.80;;;;;;;30.30;9.53;100986.75;108121;1254;61026;-70
2023/05/06 11:22:44;;;;;;;4.80;2.60;;;;;;;30.12;9.82;100987.48;108125;1254;62206;-69
2023/05/06 11:25:11;;;;;;;6.00;2.80;;;;;;;29.93;10.24;100986.89;108105;1254;72917;-69
2023/05/06 11:27:38;;;;;;;3.90;2.00;;;;;;;30.24;10.13;100984.89;108116;1254;70043;-69